Seymour Johnson Air Force Base
KGSB : now visible

Airfield :











YOU CAN JOIN US ON...

 
LOGIN :

Register | Disclaimer

   EN    FR    IT 

 









Legend :    VFR   Marginal VFR   IFR   Intensive IFR   Very Intensive IFR
Visi :
Ceiling :
>= 8 km
>= 3000ft
5 to 8 km
1000 to 3000 ft
1500m to 5 km
500 to 1000 ft
800 to 1500m
200 to 500 ft
< 800m
< 200 ft
Symbols :   Thunderstorms  Fog  Heavy snow  Heavy precipitations  Wind > 20 kt






- Airport Elevation : 109 ft


KGSB - Seymour Johnson Air Force Base

CURRENT METAR :
  • 281506Z COR 19009G17KT 2 1/2SM -TSRA BKN011CB OVC17 24/22 A3009 RMK AO2A RAB1414E1424RAB1452 TSB1449 CIG 017V029 SLP192 $ COR 1509

EXPIRED METARs :
  • 281449Z 22010G15KT 5SM -TSRA BKN017CB BKN030 BKN065 27/23 A3009 RMK RAB14E24 SLP192 $
  • 281430Z COR 19007KT 10SM VCTS BKN016 BKN023 OVC030CB 27/23 A3008 RMK RAB14E24 SLP188 $ COR 1440
  • 281417Z AUTO 19005KT 10SM -RA BKN018 BKN023 26/23 A3008 RMK AO2 RAB14 SLP188 $
  • 281356Z AUTO 18005KT 10SM FEW013 BKN020 BKN190 26/23 A3008 RMK AO2 SLP188 P0001 T02590233 $
  • 281311Z AUTO 19005KT 10SM BKN011 OVC016 25/24 A3009 RMK AO2 BKN V OVC SLP192 $
  • 281256Z AUTO 18005KT 10SM BKN009 OVC016 25/24 A3009 RMK AO2 RAB11E26 SLP192 P0000 T02460242 $
  • 281226Z AUTO 18005KT 10SM BKN009 OVC013 24/24 A3009 RMK AO2 RAB11E26 SLP192 $

TAF AMD TAF KGSB
Valid from the 28 at 14:00 until the 29 at 18:00 UTC


281420Z 2814/2918 16006KT 9000 -SHRA BKN018 BKN023 QNH3008INS
TEMPO 2816/2822 17010G15KT 3200 -TSRA BKN030CB
BECMG 2822/2823 16008KT 9000 -SHRA SCT005 BKN020 QNH3001INS
BECMG 2914/2915 20010G15KT 9000 -SHRA BKN020 QNH3004INS TX28/2817Z TN24/2900Z
KZDC FIR / North America



MET'MAP, your aeronautical weather chart ! - Copyright ORBIFLY December 2007 - Disclaimer

ORBIFLY MET'MAP TEAM :

Programming & Development : Alexandra Zaïnal
Concept & original design : Baudouin d'Aumeries
Assistance for programming : Marc-Olivier Méhu
Technical & hardware support : Manuel Goepfert

Contact : metmap@orbifly.com




SOURCES & CREDITS :

   NOAA       Earth
Advisory